createdAt,value
2019-02-22T00:00:28.342Z,35.30
2019-02-22T00:02:56.888Z,33.33
2019-02-22T00:05:25.466Z,42.87
2019-02-22T00:07:54.045Z,38.57
2019-02-22T00:10:22.597Z,37.70
2019-02-22T00:12:51.206Z,37.13
2019-02-22T00:15:19.785Z,39.50
2019-02-22T00:17:48.006Z,35.80
2019-02-22T00:20:16.585Z,42.77
2019-02-22T00:22:45.166Z,42.07
2019-02-22T00:25:13.701Z,45.10
2019-02-22T00:27:42.312Z,41.37
2019-02-22T00:30:10.989Z,41.90
2019-02-22T00:32:39.569Z,38.90
2019-02-22T00:35:07.878Z,45.23
2019-02-22T00:37:36.484Z,42.07
2019-02-22T00:40:05.883Z,37.43
2019-02-22T00:42:34.454Z,42.10
2019-02-22T00:45:03.073Z,46.60
2019-02-22T00:47:31.653Z,39.63
2019-02-22T00:50:00.314Z,42.20
2019-02-22T00:52:28.904Z,44.70
2019-02-22T00:54:57.432Z,40.83
2019-02-22T00:57:26.011Z,55.93
2019-02-22T00:59:54.236Z,43.10
2019-02-22T01:02:22.809Z,43.87
2019-02-22T01:04:51.357Z,53.20
2019-02-22T01:07:19.970Z,51.17
2019-02-22T01:09:48.193Z,50.93
2019-02-22T01:12:16.774Z,58.50
2019-02-22T01:14:45.327Z,34.03
2019-02-22T01:17:13.973Z,62.07
2019-02-22T01:19:42.522Z,46.90
2019-02-22T01:22:11.103Z,56.33
2019-02-22T01:24:39.348Z,66.37
2019-02-22T01:27:07.897Z,53.87
2019-02-22T01:29:36.480Z,53.17
2019-02-22T01:32:05.098Z,57.37
2019-02-22T01:34:33.707Z,42.27
2019-02-22T01:37:01.929Z,47.87
2019-02-22T01:39:30.209Z,56.63
2019-02-22T01:41:58.429Z,56.63
2019-02-22T01:44:27.007Z,44.93
2019-02-22T01:46:55.562Z,55.77
2019-02-22T01:49:23.840Z,60.57
2019-02-22T01:51:52.385Z,66.60
2019-02-22T01:54:20.962Z,52.87
2019-02-22T01:56:49.200Z,56.40
2019-02-22T01:59:17.761Z,54.67
2019-02-22T02:01:46.344Z,59.63
2019-02-22T02:04:14.942Z,63.97
2019-02-22T02:06:43.757Z,60.20
2019-02-22T02:09:12.497Z,52.90
2019-02-22T02:11:41.050Z,56.50
2019-02-22T02:14:09.658Z,53.50
2019-02-22T02:16:38.274Z,58.87
2019-02-22T02:19:06.952Z,48.90
2019-02-22T02:21:35.491Z,50.80
2019-02-22T02:24:04.305Z,60.73
2019-02-22T02:26:32.957Z,63.87
2019-02-22T02:29:01.577Z,61.37
2019-02-22T02:31:30.112Z,60.93
2019-02-22T02:33:58.684Z,56.13
2019-02-22T02:36:27.234Z,57.23
2019-02-22T02:38:55.781Z,56.63
2019-02-22T02:41:24.365Z,63.97
2019-02-22T02:43:52.913Z,63.67
2019-02-22T02:46:21.493Z,55.10
2019-02-22T02:48:49.708Z,61.07
2019-02-22T02:51:18.289Z,42.73
2019-02-22T02:53:46.829Z,59.53
2019-02-22T02:56:15.397Z,58.33
2019-02-22T02:58:43.947Z,49.17
2019-02-22T03:01:12.526Z,54.97
2019-02-22T03:03:41.069Z,57.67
2019-02-22T03:06:23.108Z,49.47
2019-02-22T03:08:51.663Z,68.83
2019-02-22T03:11:21.323Z,71.20
2019-02-22T03:13:50.085Z,54.40
2019-02-22T03:16:18.666Z,56.00
2019-02-22T03:18:47.214Z,60.77
2019-02-22T03:21:15.781Z,54.40
2019-02-22T03:23:43.999Z,56.40
2019-02-22T03:26:12.572Z,61.50
2019-02-22T03:28:41.121Z,56.70
2019-02-22T03:31:09.418Z,64.37
2019-02-22T03:33:38.014Z,57.53
2019-02-22T03:36:06.590Z,60.63
2019-02-22T03:38:35.138Z,55.97
2019-02-22T03:41:03.785Z,57.00
2019-02-22T03:43:32.328Z,70.70
2019-02-22T03:46:00.909Z,57.97
2019-02-22T03:48:29.462Z,54.53
2019-02-22T03:50:58.105Z,59.73
2019-02-22T03:53:28.301Z,62.97
2019-02-22T03:55:56.943Z,62.07
2019-02-22T03:58:25.233Z,54.40
2019-02-22T04:00:53.772Z,60.03
2019-02-22T04:03:22.093Z,51.83
2019-02-22T04:05:50.310Z,45.03
2019-02-22T04:08:18.891Z,64.23
2019-02-22T04:10:47.439Z,55.10
2019-02-22T04:13:16.098Z,66.57
2019-02-22T04:15:44.705Z,61.93
2019-02-22T04:18:13.278Z,47.97
2019-02-22T04:20:41.496Z,68.63
2019-02-22T04:23:09.744Z,72.83
2019-02-22T04:25:38.297Z,64.57
2019-02-22T04:28:06.870Z,62.87
2019-02-22T04:30:37.815Z,65.30
2019-02-22T04:33:05.632Z,64.30
2019-02-22T04:35:33.850Z,57.87
2019-02-22T04:38:02.096Z,58.67
2019-02-22T04:40:30.321Z,78.73
2019-02-22T04:42:58.897Z,76.10
2019-02-22T04:45:27.446Z,62.30
2019-02-22T04:47:56.013Z,63.90
2019-02-22T04:50:24.557Z,61.13
2019-02-22T04:52:53.138Z,59.00
2019-02-22T04:55:21.355Z,64.73
2019-02-22T04:57:49.926Z,57.93
2019-02-22T05:00:18.472Z,51.50
2019-02-22T05:02:47.049Z,39.20
2019-02-22T05:05:15.260Z,51.63
2019-02-22T05:07:43.837Z,47.63
2019-02-22T05:10:12.453Z,23.60
2019-02-22T05:12:41.036Z,62.43
2019-02-22T05:15:12.941Z,53.97
2019-02-22T05:17:39.802Z,70.43
2019-02-22T05:20:08.514Z,73.87
2019-02-22T05:22:37.080Z,60.17
2019-02-22T05:25:06.068Z,83.00
2019-02-22T05:27:34.649Z,73.80
2019-02-22T05:30:02.860Z,67.73
2019-02-22T05:32:31.113Z,71.53
2019-02-22T05:34:59.665Z,68.03
2019-02-22T05:37:28.215Z,70.23
2019-02-22T05:39:56.781Z,71.40
2019-02-22T05:42:25.320Z,66.43
2019-02-22T05:44:53.893Z,69.57
2019-02-22T05:47:22.436Z,66.57
2019-02-22T05:49:51.017Z,71.30
2019-02-22T05:52:19.559Z,68.60
2019-02-22T05:54:48.133Z,66.83
2019-02-22T05:57:16.672Z,70.77
2019-02-22T05:59:44.929Z,70.83
2019-02-22T06:02:14.570Z,63.83
2019-02-22T06:04:43.007Z,70.40
2019-02-22T06:07:14.358Z,79.43
2019-02-22T06:09:41.424Z,46.03
2019-02-22T06:12:09.971Z,73.77
2019-02-22T06:14:38.537Z,70.17
2019-02-22T06:17:14.628Z,77.07
2019-02-22T06:19:36.982Z,71.23
2019-02-22T06:22:05.526Z,64.83
2019-02-22T06:24:33.772Z,74.73
2019-02-22T06:27:01.996Z,55.50
2019-02-22T06:29:30.567Z,74.97
2019-02-22T06:31:59.108Z,75.20
2019-02-22T06:34:27.690Z,80.43
2019-02-22T06:37:01.807Z,71.73
2019-02-22T06:39:26.460Z,74.03
2019-02-22T06:41:54.668Z,77.10
2019-02-22T06:44:23.251Z,70.13
2019-02-22T06:46:51.793Z,58.57
2019-02-22T06:49:20.364Z,44.80
2019-02-22T06:51:48.913Z,55.57
2019-02-22T06:54:17.486Z,57.30
2019-02-22T06:56:45.696Z,69.90
2019-02-22T06:59:14.277Z,55.57
2019-02-22T07:01:42.502Z,41.10
2019-02-22T07:04:10.736Z,76.20
2019-02-22T07:06:39.280Z,81.03
2019-02-22T07:09:07.824Z,72.67
2019-02-22T07:11:46.616Z,78.03
2019-02-22T07:14:15.190Z,78.53
2019-02-22T07:16:43.741Z,66.97
2019-02-22T07:19:11.952Z,61.73
2019-02-22T07:21:52.062Z,69.50
2019-02-22T07:24:10.726Z,68.03
2019-02-22T07:26:39.296Z,66.67
2019-02-22T07:29:07.840Z,87.23
2019-02-22T07:31:36.485Z,75.67
2019-02-22T07:34:05.029Z,71.43
2019-02-22T07:36:33.611Z,71.90
2019-02-22T07:39:02.149Z,57.77
2019-02-22T07:41:30.793Z,61.17
2019-02-22T07:43:59.337Z,44.70
2019-02-22T07:46:27.583Z,57.47
2019-02-22T07:48:56.125Z,62.63
2019-02-22T07:51:24.696Z,57.53
2019-02-22T07:53:52.909Z,71.43
2019-02-22T07:56:21.484Z,63.57
2019-02-22T07:58:50.028Z,62.80
2019-02-22T08:01:18.668Z,66.57
2019-02-22T08:03:47.207Z,52.67
2019-02-22T08:06:15.776Z,57.03
2019-02-22T08:08:43.998Z,58.47
2019-02-22T08:11:12.571Z,69.90
2019-02-22T08:13:41.113Z,37.90
2019-02-22T08:16:09.689Z,77.07
2019-02-22T08:18:38.231Z,66.60
2019-02-22T08:21:06.805Z,68.40
2019-02-22T08:23:35.417Z,63.43
2019-02-22T08:26:03.660Z,61.80
2019-02-22T08:28:32.272Z,64.23
2019-02-22T08:31:00.982Z,67.10
2019-02-22T08:33:29.529Z,73.40
2019-02-22T08:35:58.373Z,58.07
2019-02-22T08:38:26.917Z,64.53
2019-02-22T08:40:55.780Z,49.17
2019-02-22T08:43:31.606Z,59.67
2019-02-22T08:45:54.519Z,54.77
2019-02-22T08:48:23.084Z,55.33
2019-02-22T08:50:51.661Z,50.73
2019-02-22T08:53:20.213Z,53.10
2019-02-22T08:55:48.786Z,52.70
2019-02-22T08:58:17.477Z,55.00
2019-02-22T09:00:46.046Z,55.73
2019-02-22T09:03:14.588Z,48.00
2019-02-22T09:05:43.160Z,62.67
2019-02-22T09:08:11.709Z,48.80
2019-02-22T09:10:40.271Z,46.47
2019-02-22T09:13:09.590Z,40.33
2019-02-22T09:15:38.205Z,39.80
2019-02-22T09:18:06.848Z,44.10
2019-02-22T09:20:35.480Z,39.60
2019-02-22T09:23:04.033Z,41.67
2019-02-22T09:25:32.649Z,43.70
2019-02-22T09:28:01.230Z,39.83
2019-02-22T09:30:29.769Z,36.33
2019-02-22T09:32:58.344Z,34.47
2019-02-22T09:35:26.892Z,34.50
2019-02-22T09:37:55.460Z,37.33
2019-02-22T09:40:24.011Z,36.50
2019-02-22T09:42:52.592Z,29.37
2019-02-22T09:45:21.132Z,33.30
2019-02-22T09:47:49.705Z,33.67
2019-02-22T09:50:18.244Z,31.30
2019-02-22T09:52:46.841Z,27.30
2019-02-22T09:55:15.376Z,24.97
2019-02-22T09:57:43.958Z,25.53
2019-02-22T10:00:15.586Z,24.00
2019-02-22T10:02:44.952Z,22.03
2019-02-22T10:05:14.555Z,26.27
2019-02-22T10:07:43.135Z,24.77
2019-02-22T10:10:12.120Z,22.47
2019-02-22T10:12:40.696Z,22.57
2019-02-22T10:15:10.585Z,18.67
2019-02-22T10:17:39.137Z,27.13
2019-02-22T10:20:11.448Z,20.97
2019-02-22T10:22:39.988Z,27.23
2019-02-22T10:25:08.710Z,32.50
2019-02-22T10:27:37.267Z,23.70
2019-02-22T10:30:08.913Z,22.93
2019-02-22T10:32:37.457Z,20.83
2019-02-22T10:35:07.073Z,21.23
2019-02-22T10:37:35.693Z,20.70
2019-02-22T10:40:06.708Z,18.70
2019-02-22T10:42:35.256Z,17.17
2019-02-22T10:45:04.369Z,13.83
2019-02-22T10:47:32.908Z,15.43
2019-02-22T10:50:01.489Z,14.00
2019-02-22T10:52:30.038Z,13.70
2019-02-22T10:54:58.687Z,13.37
2019-02-22T10:57:27.236Z,13.03
2019-02-22T10:59:55.814Z,10.97
2019-02-22T11:02:24.352Z,9.60
2019-02-22T11:04:52.924Z,10.97
2019-02-22T11:07:21.464Z,9.30
2019-02-22T11:09:50.045Z,11.30
2019-02-22T11:12:18.256Z,12.93
2019-02-22T11:14:47.079Z,9.67
2019-02-22T11:17:15.671Z,12.60
2019-02-22T11:19:44.245Z,9.97
2019-02-22T11:22:12.851Z,9.37
2019-02-22T11:24:41.427Z,10.70
2019-02-22T11:27:09.972Z,10.90
2019-02-22T11:29:38.219Z,9.57
2019-02-22T11:32:06.839Z,10.57
2019-02-22T11:34:35.414Z,10.13
2019-02-22T11:37:04.328Z,14.57
2019-02-22T11:39:32.901Z,17.57
2019-02-22T11:42:01.473Z,11.27
2019-02-22T11:44:39.859Z,11.10
2019-02-22T11:47:00.213Z,11.13
2019-02-22T11:49:28.457Z,9.67
2019-02-22T11:51:57.005Z,10.63
2019-02-22T11:54:25.548Z,9.83
2019-02-22T11:56:53.893Z,7.53
2019-02-22T11:59:22.438Z,10.17
2019-02-22T12:01:51.008Z,10.10
2019-02-22T12:04:19.619Z,8.67
2019-02-22T12:06:48.220Z,7.83
2019-02-22T12:09:16.839Z,4.83
2019-02-22T12:11:45.445Z,5.33
2019-02-22T12:14:14.051Z,5.10
2019-02-22T12:16:42.228Z,4.13
2019-02-22T12:19:10.442Z,3.43
2019-02-22T12:21:38.701Z,5.30
2019-02-22T12:24:07.293Z,4.27
2019-02-22T12:26:35.868Z,3.63
2019-02-22T12:29:04.479Z,3.87
2019-02-22T12:31:33.044Z,3.87
2019-02-22T12:34:01.603Z,3.10
2019-02-22T12:36:30.161Z,3.10
2019-02-22T12:38:58.771Z,3.67
2019-02-22T12:41:27.345Z,3.37
2019-02-22T12:43:55.884Z,3.40
2019-02-22T12:46:24.506Z,3.60
2019-02-22T12:48:53.006Z,3.23
2019-02-22T12:51:21.584Z,15.00
2019-02-22T12:53:50.120Z,5.27
2019-02-22T12:56:18.697Z,5.30
2019-02-22T12:58:47.078Z,4.17
2019-02-22T13:01:15.672Z,3.80
2019-02-22T13:03:44.217Z,4.17
2019-02-22T13:06:12.857Z,9.27
2019-02-22T13:08:41.405Z,4.30
2019-02-22T13:11:09.644Z,6.37
2019-02-22T13:13:38.262Z,4.00
2019-02-22T13:16:06.828Z,4.27
2019-02-22T13:18:35.443Z,3.50
2019-02-22T13:21:03.948Z,3.77
2019-02-22T13:23:32.565Z,4.67
2019-02-22T13:26:01.117Z,2.90
2019-02-22T13:28:29.378Z,2.97
2019-02-22T13:30:57.597Z,3.13
2019-02-22T13:33:26.164Z,3.10
2019-02-22T13:35:54.708Z,2.57
2019-02-22T13:38:23.348Z,3.53
2019-02-22T13:40:51.893Z,3.00
2019-02-22T13:43:20.135Z,3.13
2019-02-22T13:45:48.741Z,3.77
2019-02-22T13:48:17.388Z,3.13
2019-02-22T13:50:45.925Z,3.27
2019-02-22T13:53:14.501Z,3.20
2019-02-22T13:55:43.041Z,3.73
2019-02-22T13:58:11.617Z,3.43
2019-02-22T14:00:39.828Z,2.77
2019-02-22T14:03:08.398Z,7.00
2019-02-22T14:05:36.618Z,2.63
2019-02-22T14:08:04.857Z,3.40
2019-02-22T14:10:33.394Z,4.13
2019-02-22T14:13:01.969Z,2.73
2019-02-22T14:15:37.980Z,5.93
2019-02-22T14:18:00.056Z,3.90
2019-02-22T14:20:28.600Z,4.63
2019-02-22T14:22:57.168Z,3.80
2019-02-22T14:25:25.712Z,4.87
2019-02-22T14:27:54.279Z,3.50
2019-02-22T14:30:22.827Z,3.37
2019-02-22T14:32:51.399Z,3.23
2019-02-22T14:35:20.018Z,2.90
2019-02-22T14:37:48.585Z,3.57
2019-02-22T14:40:17.129Z,5.53
2019-02-22T14:42:45.772Z,3.93
2019-02-22T14:45:14.386Z,2.83
2019-02-22T14:47:43.071Z,5.30
2019-02-22T14:50:17.196Z,3.53
2019-02-22T14:52:45.814Z,3.80
2019-02-22T14:55:14.384Z,3.10
2019-02-22T14:57:45.048Z,3.63
2019-02-22T15:00:15.682Z,3.27
2019-02-22T15:02:44.227Z,4.50
2019-02-22T15:05:13.941Z,3.23
2019-02-22T15:07:42.557Z,3.20
2019-02-22T15:10:11.164Z,3.40
2019-02-22T15:12:39.776Z,4.33
2019-02-22T15:15:13.633Z,5.00
2019-02-22T15:17:46.365Z,4.00
2019-02-22T15:20:14.929Z,3.13
2019-02-22T15:22:43.469Z,3.43
2019-02-22T15:25:13.789Z,3.17
2019-02-22T15:27:42.410Z,3.20
2019-02-22T15:30:12.341Z,5.43
2019-02-22T15:32:40.519Z,2.97
2019-02-22T15:35:14.196Z,3.27
2019-02-22T15:37:43.460Z,3.30
2019-02-22T15:40:13.058Z,2.80
2019-02-22T15:42:41.672Z,3.03
2019-02-22T15:45:15.187Z,3.40
2019-02-22T15:47:43.762Z,3.00
2019-02-22T15:50:17.332Z,2.83
2019-02-22T15:52:46.911Z,2.90
2019-02-22T15:55:15.549Z,3.10
2019-02-22T15:57:44.088Z,3.20
2019-02-22T16:00:24.695Z,2.80
2019-02-22T16:02:53.237Z,3.20
2019-02-22T16:05:23.440Z,3.10
2019-02-22T16:07:52.120Z,2.50
2019-02-22T16:10:20.777Z,10.30
2019-02-22T16:12:49.541Z,9.80
2019-02-22T16:15:18.320Z,4.03
2019-02-22T16:17:46.865Z,3.63
2019-02-22T16:20:15.505Z,3.47
2019-02-22T16:22:44.191Z,12.73
2019-02-22T16:25:19.564Z,3.90
2019-02-22T16:27:42.634Z,3.87
2019-02-22T16:30:15.474Z,4.27
2019-02-22T16:32:44.014Z,4.00
2019-02-22T16:35:12.582Z,5.03
2019-02-22T16:37:40.796Z,2.87
2019-02-22T16:40:12.786Z,11.97
2019-02-22T16:42:41.428Z,10.53
2019-02-22T16:45:13.732Z,13.27
2019-02-22T16:47:42.369Z,6.37
2019-02-22T16:50:12.350Z,7.10
2019-02-22T16:52:40.985Z,7.90
2019-02-22T16:55:14.811Z,7.17
2019-02-22T16:57:43.338Z,16.47
2019-02-22T17:00:16.399Z,14.60
2019-02-22T17:02:45.044Z,11.33
2019-02-22T17:05:15.832Z,10.00
2019-02-22T17:07:44.465Z,8.37
2019-02-22T17:10:13.155Z,9.90
2019-02-22T17:12:41.721Z,9.07
2019-02-22T17:15:12.968Z,7.17
2019-02-22T17:17:41.544Z,13.87
2019-02-22T17:20:11.292Z,8.10
2019-02-22T17:22:39.932Z,6.30
2019-02-22T17:25:14.492Z,7.00
2019-02-22T17:27:43.058Z,4.87
2019-02-22T17:30:16.739Z,7.10
2019-02-22T17:32:45.313Z,4.73
2019-02-22T17:35:14.082Z,3.00
2019-02-22T17:37:42.648Z,4.43
2019-02-22T17:40:16.445Z,4.80
2019-02-22T17:42:45.009Z,3.33
2019-02-22T17:45:13.602Z,2.40
2019-02-22T17:47:42.125Z,3.30
2019-02-22T17:50:11.197Z,4.27
2019-02-22T17:52:39.838Z,3.10
2019-02-22T17:55:09.722Z,3.43
2019-02-22T17:57:38.037Z,3.33
2019-02-22T18:00:16.516Z,3.50
2019-02-22T18:02:45.081Z,3.83
2019-02-22T18:05:13.695Z,3.13
2019-02-22T18:07:42.261Z,3.53
2019-02-22T18:10:11.540Z,3.10
2019-02-22T18:12:40.104Z,3.77
2019-02-22T18:15:11.054Z,4.17
2019-02-22T18:17:40.659Z,3.80
2019-02-22T18:20:08.873Z,5.27
2019-02-22T18:22:37.114Z,6.10
2019-02-22T18:25:08.369Z,4.00
2019-02-22T18:27:37.078Z,7.87
2019-02-22T18:30:06.829Z,4.17
2019-02-22T18:32:35.394Z,4.63
2019-02-22T18:35:04.569Z,4.83
2019-02-22T18:37:33.436Z,4.73
2019-02-22T18:40:02.019Z,5.40
2019-02-22T18:42:30.657Z,4.90
2019-02-22T18:44:59.225Z,5.57
2019-02-22T18:47:27.442Z,4.87
2019-02-22T18:49:56.006Z,6.27
2019-02-22T18:52:24.540Z,5.00
2019-02-22T18:54:53.114Z,8.60
2019-02-22T18:57:21.656Z,5.63
2019-02-22T18:59:50.225Z,6.07
2019-02-22T19:02:18.444Z,5.83
2019-02-22T19:04:47.010Z,4.30
2019-02-22T19:07:15.548Z,7.07
2019-02-22T19:09:44.112Z,5.27
2019-02-22T19:12:12.653Z,6.30
2019-02-22T19:14:41.220Z,6.47
2019-02-22T19:17:09.773Z,6.03
2019-02-22T19:19:38.015Z,8.13
2019-02-22T19:22:06.557Z,8.33
2019-02-22T19:24:35.132Z,6.13
2019-02-22T19:27:03.673Z,5.97
2019-02-22T19:29:32.249Z,7.20
2019-02-22T19:32:00.792Z,6.07
2019-02-22T19:34:29.357Z,6.93
2019-02-22T19:36:57.896Z,10.97
2019-02-22T19:39:26.468Z,9.07
2019-02-22T19:41:55.007Z,7.17
2019-02-22T19:44:23.577Z,6.43
2019-02-22T19:46:52.131Z,6.83
2019-02-22T19:49:20.370Z,10.70
2019-02-22T19:51:48.575Z,6.60
2019-02-22T19:54:17.115Z,6.77
2019-02-22T19:56:45.685Z,7.47
2019-02-22T19:59:13.891Z,7.40
2019-02-22T20:01:42.460Z,7.33
2019-02-22T20:04:11.066Z,6.93
2019-02-22T20:06:39.313Z,8.07
2019-02-22T20:09:08.001Z,10.03
2019-02-22T20:11:36.574Z,7.87
2019-02-22T20:14:05.180Z,6.67
2019-02-22T20:16:33.753Z,8.40
2019-02-22T20:19:02.292Z,8.90
2019-02-22T20:21:30.870Z,14.70
2019-02-22T20:23:59.084Z,10.80
2019-02-22T20:26:27.652Z,9.03
2019-02-22T20:28:56.273Z,11.50
2019-02-22T20:31:24.832Z,9.33
2019-02-22T20:33:53.372Z,8.00
2019-02-22T20:36:28.486Z,7.53
2019-02-22T20:38:52.115Z,7.00
2019-02-22T20:41:20.685Z,9.70
2019-02-22T20:43:49.225Z,7.30
2019-02-22T20:46:17.793Z,8.43
2019-02-22T20:48:46.340Z,7.40
2019-02-22T20:51:14.906Z,9.27
2019-02-22T20:53:43.450Z,7.60
2019-02-22T20:56:12.016Z,7.43
2019-02-22T20:58:40.232Z,10.63
2019-02-22T21:01:14.776Z,7.63
2019-02-22T21:03:39.039Z,8.87
2019-02-22T21:06:07.773Z,6.80
2019-02-22T21:08:36.310Z,9.53
2019-02-22T21:11:04.917Z,7.93
2019-02-22T21:13:33.166Z,8.27
2019-02-22T21:16:01.707Z,8.03
2019-02-22T21:18:29.944Z,9.73
2019-02-22T21:20:58.488Z,8.40
2019-02-22T21:23:27.057Z,9.00
2019-02-22T21:25:55.267Z,10.27
2019-02-22T21:28:23.504Z,7.93
2019-02-22T21:30:51.725Z,9.43
2019-02-22T21:33:19.964Z,9.77
2019-02-22T21:35:48.500Z,10.23
2019-02-22T21:38:17.069Z,9.57
2019-02-22T21:40:45.608Z,9.00
2019-02-22T21:43:13.852Z,10.53
2019-02-22T21:45:42.400Z,12.70
2019-02-22T21:48:10.648Z,12.23
2019-02-22T21:50:38.864Z,8.93
2019-02-22T21:53:07.109Z,13.90
2019-02-22T21:55:35.325Z,12.43
2019-02-22T21:58:03.560Z,11.77
2019-02-22T22:00:31.773Z,11.73
2019-02-22T22:02:59.988Z,11.50
2019-02-22T22:05:28.240Z,11.13
2019-02-22T22:07:56.777Z,9.83
2019-02-22T22:10:25.020Z,10.60
2019-02-22T22:12:53.575Z,13.07
2019-02-22T22:15:21.811Z,11.47
2019-02-22T22:17:50.357Z,10.60
2019-02-22T22:20:18.591Z,11.80
2019-02-22T22:22:47.169Z,12.13
2019-02-22T22:25:17.249Z,10.43
2019-02-22T22:27:45.788Z,12.73
2019-02-22T22:30:15.599Z,11.93
2019-02-22T22:32:44.141Z,12.40
2019-02-22T22:35:13.156Z,11.43
2019-02-22T22:37:41.372Z,12.10
2019-02-22T22:40:10.885Z,12.43
2019-02-22T22:42:39.492Z,11.87
2019-02-22T22:45:08.907Z,15.43
2019-02-22T22:47:37.126Z,11.93
2019-02-22T22:50:07.142Z,10.97
2019-02-22T22:52:35.687Z,12.57
2019-02-22T22:55:04.405Z,11.10
2019-02-22T22:57:32.620Z,14.33
2019-02-22T23:00:00.868Z,18.20
2019-02-22T23:02:29.357Z,12.60
2019-02-22T23:04:57.600Z,14.40
2019-02-22T23:07:25.818Z,12.07
2019-02-22T23:09:54.062Z,11.70
2019-02-22T23:12:22.344Z,15.03
2019-02-22T23:14:50.592Z,14.07
2019-02-22T23:17:18.813Z,12.80
2019-02-22T23:19:47.114Z,16.73
2019-02-22T23:22:15.740Z,13.30
2019-02-22T23:24:43.956Z,15.63
2019-02-22T23:27:12.197Z,15.13
2019-02-22T23:29:40.407Z,13.40
2019-02-22T23:32:08.651Z,13.13
2019-02-22T23:34:36.869Z,13.23
2019-02-22T23:37:06.040Z,16.67
2019-02-22T23:39:34.261Z,13.87
2019-02-22T23:42:02.508Z,15.63
2019-02-22T23:44:30.724Z,17.23
2019-02-22T23:46:58.972Z,15.40
2019-02-22T23:49:27.197Z,13.90
2019-02-22T23:51:55.449Z,13.70
2019-02-22T23:54:23.668Z,18.13
2019-02-22T23:56:51.914Z,14.97
2019-02-22T23:59:20.129Z,16.57
